PWSweather.com
Personal Weather Stations
Station Observations
BLACKWELL
Blackwell, AlfretonGB DE55

BlackwellAlfretonGB DE55

Lat: 53.12076, Lon: -1.354978

Elevation: 410

Station Type: Vantage Pro

Latest ConditionsUpdated 10:31:57 PM GMT Wednesday, Sep 19, 2018
Currently Today's Max Today's Min Today's Average
Temperature 54.9°F12.7°C 68.2°F20.1°C 54.7°F12.6°C 60.8°F16.0°C
Dew Point 47.1°F8.4°C 57.6°F14.2°C 42.8°F6.0°C 52.5°F11.4°C
Winds 1.0 mph SSW1.6 kmh SSW 3.0 mph -4.8 kmh - - 1.1 mph 1.8 kmh
Wind Gusts 5.0 mph8.0 kmh 13.0 mph20.9 kmh - -
Humidity 75% 93% 52% 75%
Pressure 29.85 in1010.8 mb 29.85 in1010.8 mb 29.63 in1003.4 mb -
Precipitation - 0.04 in1.0 mm - -
Hour Temp Dew Point Humidity Winds Wind Gusts Pressure Precip Precip Rate Daily Precip Total
10:31 PM 54.9°F12.7°C 47.1°F8.4°C 75% 1.0 mph SSW1.6 kmh SSW 5.0 mph8.0 kmh 29.85 in1010.8 mb 0.00 in0.0 mm 0.00 in0.0 mm 0.04 in1.0 mm
09:31 PM 54.7°F12.6°C 45.7°F7.6°C 72% Calm Calm 7.0 mph11.3 kmh 29.85 in1010.8 mb 0.00 in0.0 mm 0.00 in0.0 mm 0.04 in1.0 mm
08:31 PM 55.2°F12.9°C 45.1°F7.3°C 69% 1.0 mph S1.6 kmh S 5.0 mph8.0 kmh 29.83 in1010.2 mb 0.00 in0.0 mm 0.00 in0.0 mm 0.04 in1.0 mm
07:31 PM 56.7°F13.7°C 45.0°F7.2°C 65% 1.0 mph SSW1.6 kmh SSW 4.0 mph6.4 kmh 29.83 in1010.2 mb 0.00 in0.0 mm 0.00 in0.0 mm 0.04 in1.0 mm
06:31 PM 57.2°F14.0°C 45.1°F7.3°C 64% 1.0 mph SSW1.6 kmh SSW 6.0 mph9.7 kmh 29.80 in1009.1 mb 0.00 in0.0 mm 0.00 in0.0 mm 0.04 in1.0 mm
05:31 PM 59.0°F15.0°C 42.8°F6.0°C 55% 1.0 mph S1.6 kmh S 5.0 mph8.0 kmh 29.79 in1008.8 mb 0.00 in0.0 mm 0.00 in0.0 mm 0.04 in1.0 mm
04:31 PM 62.4°F16.9°C 44.6°F7.0°C 52% 1.0 mph S1.6 kmh S 5.0 mph8.0 kmh 29.76 in1007.8 mb 0.00 in0.0 mm 0.00 in0.0 mm 0.04 in1.0 mm
03:31 PM 63.9°F17.7°C 51.1°F10.6°C 63% 2.0 mph S3.2 kmh S 8.0 mph12.9 kmh 29.71 in1006.1 mb 0.00 in0.0 mm 0.00 in0.0 mm 0.04 in1.0 mm
02:31 PM 64.6°F18.1°C 56.5°F13.6°C 75% 3.0 mph S4.8 kmh S 13.0 mph20.9 kmh 29.68 in1005.1 mb 0.02 in0.5 mm 0.00 in0.0 mm 0.04 in1.0 mm
01:31 PM 68.2°F20.1°C 57.2°F14.0°C 68% 3.0 mph SSW4.8 kmh SSW 9.0 mph14.5 kmh 29.64 in1003.7 mb 0.00 in0.0 mm 0.00 in0.0 mm 0.02 in0.5 mm
12:31 PM 67.5°F19.7°C 54.3°F12.4°C 63% 2.0 mph SSW3.2 kmh SSW 10.0 mph16.1 kmh 29.63 in1003.4 mb 0.00 in0.0 mm 0.00 in0.0 mm 0.02 in0.5 mm
11:31 AM 68.0°F20.0°C 54.0°F12.2°C 61% 3.0 mph SSW4.8 kmh SSW 13.0 mph20.9 kmh 29.63 in1003.4 mb 0.00 in0.0 mm 0.00 in0.0 mm 0.02 in0.5 mm
10:31 AM 65.5°F18.6°C 56.7°F13.7°C 73% 1.0 mph S1.6 kmh S 8.0 mph12.9 kmh 29.64 in1003.7 mb 0.00 in0.0 mm 0.00 in0.0 mm 0.02 in0.5 mm
09:31 AM 63.5°F17.5°C 56.5°F13.6°C 78% 1.0 mph SSE1.6 kmh SSE 7.0 mph11.3 kmh 29.67 in1004.7 mb 0.01 in0.3 mm 0.00 in0.0 mm 0.02 in0.5 mm
08:31 AM 61.9°F16.6°C 56.3°F13.5°C 82% 2.0 mph SW3.2 kmh SW 5.0 mph8.0 kmh 29.68 in1005.1 mb 0.02 in0.5 mm 0.00 in0.0 mm 0.02 in0.5 mm
07:31 AM 59.2°F15.1°C 55.9°F13.3°C 89% 1.0 mph S1.6 kmh S 7.0 mph11.3 kmh 29.71 in1006.1 mb 0.00 in0.0 mm 0.00 in0.0 mm 0.00 in0.0 mm
06:31 AM 58.1°F14.5°C 55.4°F13.0°C 91% 1.0 mph S1.6 kmh S 7.0 mph11.3 kmh 29.72 in1006.4 mb 0.00 in0.0 mm 0.00 in0.0 mm 0.00 in0.0 mm
05:31 AM 58.1°F14.5°C 55.4°F13.0°C 91% 1.0 mph S1.6 kmh S 6.0 mph9.7 kmh 29.73 in1006.8 mb 0.00 in0.0 mm 0.00 in0.0 mm 0.00 in0.0 mm
04:31 AM 58.3°F14.6°C 56.3°F13.5°C 93% Calm Calm 4.0 mph6.4 kmh 29.74 in1007.1 mb 0.00 in0.0 mm 0.00 in0.0 mm 0.00 in0.0 mm
03:31 AM 58.6°F14.8°C 55.9°F13.3°C 91% Calm Calm 2.0 mph3.2 kmh 29.75 in1007.5 mb 0.00 in0.0 mm 0.00 in0.0 mm 0.00 in0.0 mm
02:31 AM 60.1°F15.6°C 56.5°F13.6°C 88% Calm Calm 6.0 mph9.7 kmh 29.76 in1007.8 mb 0.00 in0.0 mm 0.00 in0.0 mm 0.00 in0.0 mm
01:31 AM 60.8°F16.0°C 57.6°F14.2°C 89% Calm Calm 4.0 mph6.4 kmh 29.75 in1007.5 mb 0.00 in0.0 mm 0.00 in0.0 mm 0.00 in0.0 mm
12:31 AM 61.9°F16.6°C 57.6°F14.2°C 86% Calm Calm 4.0 mph6.4 kmh 29.75 in1007.5 mb 0.00 in0.0 mm 0.00 in0.0 mm 0.00 in0.0 mm